Time,TemperatureF,DewpointF,PressureIn,WindDirection,WindDirectionDegrees,WindSpeedMPH,WindSpeedGustMPH,Humidity,HourlyPrecipIn,Conditions,Clouds,dailyrainin,SoftwareType,DateUTC
2013-02-18 00:00:00,18.9,16.7,30.42,WNW,295,0.0,0.0,91,0.00,,,0.00,Wunderground v.1.15,2013-02-18 05:00:00,
2013-02-18 00:05:00,18.9,16.5,30.42,WNW,295,0.0,1.0,90,0.00,,,0.00,Wunderground v.1.15,2013-02-18 05:05:00,
2013-02-18 00:15:00,18.7,16.3,30.42,WNW,295,0.0,1.0,90,0.00,,,0.00,Wunderground v.1.15,2013-02-18 05:15:00,
2013-02-18 00:25:00,18.5,16.1,30.42,WNW,295,0.0,0.0,90,0.00,,,0.00,Wunderground v.1.15,2013-02-18 05:25:00,
2013-02-18 00:30:00,18.5,15.8,30.43,WNW,295,0.0,0.0,89,0.00,,,0.00,Wunderground v.1.15,2013-02-18 05:30:00,
2013-02-18 00:40:00,18.2,15.8,30.43,WNW,295,0.0,0.0,90,0.00,,,0.00,Wunderground v.1.15,2013-02-18 05:40:00,
2013-02-18 00:50:00,17.9,15.7,30.43,WNW,295,0.0,1.0,91,0.00,,,0.00,Wunderground v.1.15,2013-02-18 05:50:00,
2013-02-18 00:55:00,17.7,15.5,30.43,WNW,301,0.0,1.0,91,0.00,,,0.00,Wunderground v.1.15,2013-02-18 05:55:00,
2013-02-18 01:00:00,17.9,16.0,30.44,WNW,300,0.0,0.0,92,0.00,,,0.00,Wunderground v.1.15,2013-02-18 06:00:00,
2013-02-18 01:05:00,17.8,15.6,30.43,WNW,301,0.0,1.0,91,0.00,,,0.00,Wunderground v.1.15,2013-02-18 06:05:00,
2013-02-18 01:15:00,17.6,15.4,30.44,WNW,300,0.0,1.0,91,0.00,,,0.00,Wunderground v.1.15,2013-02-18 06:15:00,
2013-02-18 01:20:00,17.5,15.3,30.44,WNW,301,0.0,0.0,91,0.00,,,0.00,Wunderground v.1.15,2013-02-18 06:20:00,
2013-02-18 01:25:00,17.3,15.1,30.44,WNW,301,0.0,0.0,91,0.00,,,0.00,Wunderground v.1.15,2013-02-18 06:25:00,
2013-02-18 01:35:00,17.4,15.5,30.44,WNW,300,0.0,0.0,92,0.00,,,0.00,Wunderground v.1.15,2013-02-18 06:35:00,
2013-02-18 01:45:00,17.4,15.2,30.44,WNW,301,0.0,0.0,91,0.00,,,0.00,Wunderground v.1.15,2013-02-18 06:45:00,
2013-02-18 01:50:00,17.3,15.1,30.45,WNW,301,0.0,0.0,91,0.00,,,0.00,Wunderground v.1.15,2013-02-18 06:50:00,
2013-02-18 02:00:00,17.0,15.1,30.45,WNW,301,0.0,0.0,92,0.00,,,0.00,Wunderground v.1.15,2013-02-18 07:00:00,
2013-02-18 02:10:00,16.8,14.6,30.45,WNW,300,0.0,1.0,91,0.00,,,0.00,Wunderground v.1.15,2013-02-18 07:10:00,
2013-02-18 02:20:00,16.6,14.7,30.45,WNW,300,0.0,1.0,92,0.00,,,0.00,Wunderground v.1.15,2013-02-18 07:20:00,
2013-02-18 02:30:00,16.4,14.5,30.45,WNW,301,0.0,0.0,92,0.00,,,0.00,Wunderground v.1.15,2013-02-18 07:30:00,
2013-02-18 02:35:00,16.4,14.5,30.45,WNW,301,0.0,0.0,92,0.00,,,0.00,Wunderground v.1.15,2013-02-18 07:35:00,
2013-02-18 02:45:00,16.3,14.4,30.45,WNW,301,0.0,0.0,92,0.00,,,0.00,Wunderground v.1.15,2013-02-18 07:45:00,
2013-02-18 02:50:00,16.2,14.3,30.45,WNW,301,0.0,0.0,92,0.00,,,0.00,Wunderground v.1.15,2013-02-18 07:50:00,
2013-02-18 03:00:00,16.2,14.3,30.46,WNW,301,0.0,0.0,92,0.00,,,0.00,Wunderground v.1.15,2013-02-18 08:00:00,
2013-02-18 03:10:00,16.2,14.3,30.46,WNW,301,0.0,1.0,92,0.00,,,0.00,Wunderground v.1.15,2013-02-18 08:10:00,
2013-02-18 03:20:00,16.2,14.3,30.46,WNW,283,0.0,0.0,92,0.00,,,0.00,Wunderground v.1.15,2013-02-18 08:20:00,
2013-02-18 03:25:00,16.1,14.2,30.46,WNW,283,0.0,0.0,92,0.00,,,0.00,Wunderground v.1.15,2013-02-18 08:25:00,
2013-02-18 03:35:00,15.9,13.7,30.46,WNW,283,0.0,0.0,91,0.00,,,0.00,Wunderground v.1.15,2013-02-18 08:35:00,
2013-02-18 03:45:00,15.8,13.9,30.46,WNW,283,0.0,0.0,92,0.00,,,0.00,Wunderground v.1.15,2013-02-18 08:45:00,
2013-02-18 03:50:00,15.8,13.9,30.46,WNW,284,0.0,0.0,92,0.00,,,0.00,Wunderground v.1.15,2013-02-18 08:50:00,
2013-02-18 04:00:00,15.8,13.9,30.46,WNW,284,0.0,0.0,92,0.00,,,0.00,Wunderground v.1.15,2013-02-18 09:00:00,
2013-02-18 04:05:00,15.7,13.8,30.46,WNW,283,0.0,1.0,92,0.00,,,0.00,Wunderground v.1.15,2013-02-18 09:05:00,
2013-02-18 04:15:00,15.6,13.7,30.47,WNW,283,0.0,1.0,92,0.00,,,0.00,Wunderground v.1.15,2013-02-18 09:15:00,
2013-02-18 04:25:00,15.5,13.6,30.46,WNW,284,0.0,0.0,92,0.00,,,0.00,Wunderground v.1.15,2013-02-18 09:25:00,
2013-02-18 04:35:00,15.4,13.5,30.47,WNW,283,0.0,0.0,92,0.00,,,0.00,Wunderground v.1.15,2013-02-18 09:35:00,
2013-02-18 04:45:00,15.4,13.5,30.47,WNW,283,0.0,0.0,92,0.00,,,0.00,Wunderground v.1.15,2013-02-18 09:45:00,
2013-02-18 04:50:00,15.5,13.6,30.48,WNW,283,0.0,0.0,92,0.00,,,0.00,Wunderground v.1.15,2013-02-18 09:50:00,
2013-02-18 05:00:00,15.7,14.0,30.48,WNW,283,0.0,0.0,93,0.00,,,0.00,Wunderground v.1.15,2013-02-18 10:00:00,
2013-02-18 05:10:00,15.3,13.4,30.48,WNW,283,0.0,0.0,92,0.00,,,0.00,Wunderground v.1.15,2013-02-18 10:10:00,
2013-02-18 05:15:00,15.4,13.5,30.49,WNW,284,0.0,0.0,92,0.00,,,0.00,Wunderground v.1.15,2013-02-18 10:15:00,
2013-02-18 05:25:00,15.2,13.3,30.49,WNW,284,0.0,0.0,92,0.00,,,0.00,Wunderground v.1.15,2013-02-18 10:25:00,
2013-02-18 05:30:00,15.3,13.4,30.49,WNW,284,0.0,0.0,92,0.00,,,0.00,Wunderground v.1.15,2013-02-18 10:30:00,
2013-02-18 05:40:00,15.1,13.2,30.50,WNW,283,0.0,0.0,92,0.00,,,0.00,Wunderground v.1.15,2013-02-18 10:40:00,
2013-02-18 05:50:00,14.9,12.7,30.50,WNW,284,0.0,0.0,91,0.00,,,0.00,Wunderground v.1.15,2013-02-18 10:50:00,
2013-02-18 06:00:00,14.9,13.0,30.50,WNW,283,0.0,0.0,92,0.00,,,0.00,Wunderground v.1.15,2013-02-18 11:00:00,
2013-02-18 06:05:00,14.8,12.9,30.50,WNW,284,0.0,1.0,92,0.00,,,0.00,Wunderground v.1.15,2013-02-18 11:05:00,
2013-02-18 06:15:00,14.8,12.9,30.51,WNW,284,0.0,1.0,92,0.00,,,0.00,Wunderground v.1.15,2013-02-18 11:15:00,
2013-02-18 06:25:00,14.7,12.8,30.51,WNW,284,0.0,0.0,92,0.00,,,0.00,Wunderground v.1.15,2013-02-18 11:25:00,
2013-02-18 06:35:00,14.7,12.8,30.51,WNW,283,0.0,0.0,92,0.00,,,0.00,Wunderground v.1.15,2013-02-18 11:35:00,
2013-02-18 06:40:00,14.6,12.7,30.51,WNW,284,0.0,0.0,92,0.00,,,0.00,Wunderground v.1.15,2013-02-18 11:40:00,
2013-02-18 06:45:00,14.6,12.7,30.51,WNW,284,0.0,0.0,92,0.00,,,0.00,Wunderground v.1.15,2013-02-18 11:45:00,
2013-02-18 06:55:00,14.5,12.6,30.52,WNW,283,0.0,0.0,92,0.00,,,0.00,Wunderground v.1.15,2013-02-18 11:55:00,
2013-02-18 07:05:00,14.6,12.7,30.52,WNW,284,0.0,1.0,92,0.00,,,0.00,Wunderground v.1.15,2013-02-18 12:05:00,
2013-02-18 07:10:00,14.5,12.6,30.52,WNW,284,0.0,1.0,92,0.00,,,0.00,Wunderground v.1.15,2013-02-18 12:10:00,
2013-02-18 07:20:00,14.7,12.8,30.52,WNW,283,0.0,0.0,92,0.00,,,0.00,Wunderground v.1.15,2013-02-18 12:20:00,
2013-02-18 07:30:00,15.1,13.2,30.52,WNW,285,0.0,0.0,92,0.00,,,0.00,Wunderground v.1.15,2013-02-18 12:30:00,
2013-02-18 07:40:00,15.3,13.4,30.52,WNW,285,0.0,0.0,92,0.00,,,0.00,Wunderground v.1.15,2013-02-18 12:40:00,
2013-02-18 07:45:00,15.6,13.7,30.53,WNW,285,0.0,0.0,92,0.00,,,0.00,Wunderground v.1.15,2013-02-18 12:45:00,
2013-02-18 07:55:00,16.3,14.6,30.53,WNW,283,0.0,0.0,93,0.00,,,0.00,Wunderground v.1.15,2013-02-18 12:55:00,
2013-02-18 08:05:00,17.8,16.4,30.53,WNW,284,0.0,0.0,94,0.00,,,0.00,Wunderground v.1.15,2013-02-18 13:05:00,
2013-02-18 08:15:00,19.9,18.0,30.53,WNW,283,0.0,0.0,92,0.00,,,0.00,Wunderground v.1.15,2013-02-18 13:15:00,
2013-02-18 08:25:00,21.7,18.7,30.54,WNW,284,0.0,0.0,88,0.00,,,0.00,Wunderground v.1.15,2013-02-18 13:25:00,
2013-02-18 08:35:00,24.0,19.0,30.54,WNW,283,0.0,0.0,81,0.00,,,0.00,Wunderground v.1.15,2013-02-18 13:35:00,
2013-02-18 08:40:00,24.7,17.9,30.54,WNW,284,0.0,0.0,75,0.00,,,0.00,Wunderground v.1.15,2013-02-18 13:40:00,
2013-02-18 08:45:00,25.4,20.1,30.54,WNW,283,0.0,0.0,80,0.00,,,0.00,Wunderground v.1.15,2013-02-18 13:45:00,
2013-02-18 08:55:00,26.9,21.6,30.54,WNW,283,0.0,0.0,80,0.00,,,0.00,Wunderground v.1.15,2013-02-18 13:55:00,
2013-02-18 09:00:00,27.7,21.7,30.54,SSE,148,0.0,0.0,78,0.00,,,0.00,Wunderground v.1.15,2013-02-18 14:00:00,
2013-02-18 09:10:00,29.0,23.0,30.54,SE,146,0.0,0.0,78,0.00,,,0.00,Wunderground v.1.15,2013-02-18 14:10:00,
2013-02-18 09:20:00,31.3,22.6,30.54,SE,132,0.0,0.0,70,0.00,,,0.00,Wunderground v.1.15,2013-02-18 14:20:00,
2013-02-18 09:25:00,32.4,22.3,30.54,ESE,106,0.0,1.0,66,0.00,,,0.00,Wunderground v.1.15,2013-02-18 14:25:00,
2013-02-18 09:30:00,33.4,21.4,30.54,East,89,1.0,1.0,61,0.00,,,0.00,Wunderground v.1.15,2013-02-18 14:30:00,
2013-02-18 09:40:00,35.1,20.5,30.54,ESE,110,1.0,1.0,55,0.00,,,0.00,Wunderground v.1.15,2013-02-18 14:40:00,
2013-02-18 09:50:00,36.0,20.5,30.54,WSW,252,1.0,1.0,53,0.00,,,0.00,Wunderground v.1.15,2013-02-18 14:50:00,
2013-02-18 09:55:00,36.0,20.1,30.54,NE,47,1.0,1.0,52,0.00,,,0.00,Wunderground v.1.15,2013-02-18 14:55:00,
2013-02-18 10:05:00,37.1,21.5,30.54,WNW,293,0.0,1.0,53,0.00,,,0.00,Wunderground v.1.15,2013-02-18 15:05:00,
2013-02-18 10:15:00,38.0,21.9,30.54,WSW,248,1.0,1.0,52,0.00,,,0.00,Wunderground v.1.15,2013-02-18 15:15:00,
2013-02-18 10:20:00,37.9,20.4,30.54,East,96,1.0,1.0,49,0.00,,,0.00,Wunderground v.1.15,2013-02-18 15:20:00,
2013-02-18 10:30:00,38.6,21.5,30.54,NW,304,0.0,0.0,50,0.00,,,0.00,Wunderground v.1.15,2013-02-18 15:30:00,
2013-02-18 10:35:00,39.0,20.9,30.54,East,100,0.0,0.0,48,0.00,,,0.00,Wunderground v.1.15,2013-02-18 15:35:00,
2013-02-18 10:40:00,39.3,20.2,30.54,ENE,77,1.0,1.0,46,0.00,,,0.00,Wunderground v.1.15,2013-02-18 15:40:00,
2013-02-18 10:50:00,39.6,21.0,30.54,SSE,155,2.0,2.0,47,0.00,,,0.00,Wunderground v.1.15,2013-02-18 15:50:00,
2013-02-18 11:00:00,40.3,20.1,30.54,ESE,113,2.0,2.0,44,0.00,,,0.01,Wunderground v.1.15,2013-02-18 16:00:00,
2013-02-18 11:05:00,40.7,20.5,30.54,East,79,2.0,4.0,44,0.00,,,0.01,Wunderground v.1.15,2013-02-18 16:05:00,
2013-02-18 11:15:00,41.4,18.9,30.54,WSW,241,2.0,4.0,40,0.00,,,0.01,Wunderground v.1.15,2013-02-18 16:15:00,
2013-02-18 11:25:00,42.3,19.1,30.54,ESE,117,1.0,1.0,39,0.00,,,0.01,Wunderground v.1.15,2013-02-18 16:25:00,
2013-02-18 11:30:00,42.6,18.1,30.54,ENE,58,1.0,1.0,37,0.00,,,0.01,Wunderground v.1.15,2013-02-18 16:30:00,
2013-02-18 11:40:00,43.3,19.4,30.53,ESE,102,2.0,3.0,38,0.00,,,0.01,Wunderground v.1.15,2013-02-18 16:40:00,
2013-02-18 11:50:00,43.9,18.0,30.53,ENE,64,3.0,3.0,35,0.00,,,0.01,Wunderground v.1.15,2013-02-18 16:50:00,
2013-02-18 12:00:00,44.7,18.0,30.52,NNW,342,1.0,1.0,34,0.00,,,0.01,Wunderground v.1.15,2013-02-18 17:00:00,
2013-02-18 12:10:00,45.1,18.4,30.52,West,271,2.0,2.0,34,0.00,,,0.01,Wunderground v.1.15,2013-02-18 17:10:00,
2013-02-18 12:20:00,45.5,17.3,30.51,East,94,2.0,2.0,32,0.00,,,0.01,Wunderground v.1.15,2013-02-18 17:20:00,
2013-02-18 12:30:00,46.0,17.0,30.50,North,351,2.0,2.0,31,0.00,,,0.02,Wunderground v.1.15,2013-02-18 17:30:00,
2013-02-18 12:35:00,46.2,17.2,30.50,NE,46,2.0,2.0,31,0.00,,,0.02,Wunderground v.1.15,2013-02-18 17:35:00,
2013-02-18 12:45:00,46.8,19.2,30.49,ESE,103,2.0,2.0,33,0.00,,,0.02,Wunderground v.1.15,2013-02-18 17:45:00,
2013-02-18 12:50:00,47.0,17.9,30.49,South,188,1.0,2.0,31,0.00,,,0.02,Wunderground v.1.15,2013-02-18 17:50:00,
2013-02-18 13:00:00,47.2,19.5,30.48,NNW,333,2.0,2.0,33,0.00,,,0.02,Wunderground v.1.15,2013-02-18 18:00:00,
2013-02-18 13:10:00,47.6,21.9,30.47,NW,304,2.0,8.0,36,0.00,,,0.02,Wunderground v.1.15,2013-02-18 18:10:00,
2013-02-18 13:20:00,48.4,18.3,30.47,ESE,103,2.0,4.0,30,0.00,,,0.02,Wunderground v.1.15,2013-02-18 18:20:00,
2013-02-18 13:30:00,48.7,20.8,30.46,NW,304,3.0,4.0,33,0.00,,,0.02,Wunderground v.1.15,2013-02-18 18:30:00,
2013-02-18 13:40:00,48.8,20.9,30.45,ENE,77,2.0,2.0,33,0.00,,,0.02,Wunderground v.1.15,2013-02-18 18:40:00,
2013-02-18 13:50:00,49.6,23.0,30.45,SE,142,1.0,1.0,35,0.00,,,0.02,Wunderground v.1.15,2013-02-18 18:50:00,
2013-02-18 13:55:00,49.6,21.6,30.45,West,267,2.0,2.0,33,0.00,,,0.02,Wunderground v.1.15,2013-02-18 18:55:00,
2013-02-18 14:05:00,50.0,21.3,30.45,SW,236,2.0,6.0,32,0.00,,,0.02,Wunderground v.1.15,2013-02-18 19:05:00,
2013-02-18 14:10:00,50.3,20.8,30.45,ENE,72,2.0,6.0,31,0.00,,,0.02,Wunderground v.1.15,2013-02-18 19:10:00,
2013-02-18 14:15:00,50.5,21.7,30.45,WNW,284,2.0,6.0,32,0.00,,,0.02,Wunderground v.1.15,2013-02-18 19:15:00,
2013-02-18 14:25:00,50.5,20.9,30.44,East,91,2.0,4.0,31,0.00,,,0.02,Wunderground v.1.15,2013-02-18 19:25:00,
2013-02-18 14:35:00,50.9,20.5,30.44,NE,40,2.0,2.0,30,0.00,,,0.02,Wunderground v.1.15,2013-02-18 19:35:00,
2013-02-18 14:45:00,51.2,20.0,30.44,WNW,298,2.0,5.0,29,0.00,,,0.02,Wunderground v.1.15,2013-02-18 19:45:00,
2013-02-18 14:50:00,51.6,21.1,30.44,East,100,2.0,3.0,30,0.00,,,0.02,Wunderground v.1.15,2013-02-18 19:50:00,
2013-02-18 14:55:00,51.7,19.6,30.43,NE,34,2.0,5.0,28,0.00,,,0.02,Wunderground v.1.15,2013-02-18 19:55:00,
2013-02-18 15:00:00,51.6,20.3,30.43,East,81,2.0,4.0,29,0.00,,,0.02,Wunderground v.1.15,2013-02-18 20:00:00,
2013-02-18 15:10:00,52.3,20.9,30.43,WNW,294,1.0,9.0,29,0.00,,,0.02,Wunderground v.1.15,2013-02-18 20:10:00,
2013-02-18 15:20:00,52.0,19.9,30.43,SSE,154,2.0,2.0,28,0.00,,,0.02,Wunderground v.1.15,2013-02-18 20:20:00,
2013-02-18 15:30:00,51.8,20.5,30.43,SSE,151,2.0,2.0,29,0.00,,,0.02,Wunderground v.1.15,2013-02-18 20:30:00,
2013-02-18 15:40:00,51.6,20.3,30.43,NNE,29,1.0,1.0,29,0.00,,,0.02,Wunderground v.1.15,2013-02-18 20:40:00,
2013-02-18 15:50:00,51.8,21.3,30.43,NW,326,1.0,2.0,30,0.00,,,0.02,Wunderground v.1.15,2013-02-18 20:50:00,
2013-02-18 16:00:00,52.0,21.5,30.42,ENE,57,1.0,4.0,30,0.00,,,0.02,Wunderground v.1.15,2013-02-18 21:00:00,
2013-02-18 16:10:00,51.9,20.6,30.42,ESE,115,2.0,2.0,29,0.00,,,0.02,Wunderground v.1.15,2013-02-18 21:10:00,
2013-02-18 16:20:00,51.3,20.9,30.42,West,264,2.0,2.0,30,0.00,,,0.02,Wunderground v.1.15,2013-02-18 21:20:00,
2013-02-18 16:25:00,51.1,21.5,30.42,ESE,114,2.0,2.0,31,0.00,,,0.02,Wunderground v.1.15,2013-02-18 21:25:00,
2013-02-18 16:35:00,51.0,22.9,30.42,East,89,1.0,1.0,33,0.00,,,0.02,Wunderground v.1.15,2013-02-18 21:35:00,
2013-02-18 16:40:00,50.8,21.2,30.42,East,84,2.0,2.0,31,0.00,,,0.02,Wunderground v.1.15,2013-02-18 21:40:00,
2013-02-18 16:50:00,50.6,21.8,30.42,ENE,78,1.0,1.0,32,0.00,,,0.02,Wunderground v.1.15,2013-02-18 21:50:00,
2013-02-18 17:00:00,50.4,21.6,30.42,ENE,58,1.0,1.0,32,0.00,,,0.02,Wunderground v.1.15,2013-02-18 22:00:00,
2013-02-18 17:10:00,50.0,22.0,30.42,ENE,77,1.0,6.0,33,0.00,,,0.02,Wunderground v.1.15,2013-02-18 22:10:00,
2013-02-18 17:20:00,49.6,22.3,30.42,NNW,331,2.0,2.0,34,0.00,,,0.02,Wunderground v.1.15,2013-02-18 22:20:00,
2013-02-18 17:25:00,49.4,22.2,30.42,North,352,1.0,2.0,34,0.00,,,0.02,Wunderground v.1.15,2013-02-18 22:25:00,
2013-02-18 17:35:00,48.9,22.4,30.42,East,84,1.0,1.0,35,0.00,,,0.02,Wunderground v.1.15,2013-02-18 22:35:00,
2013-02-18 17:50:00,47.7,23.3,30.43,East,79,0.0,2.0,38,0.00,,,0.02,Wunderground v.1.15,2013-02-18 22:50:00,
2013-02-18 18:00:00,46.9,25.0,30.43,NE,34,0.0,0.0,42,0.00,,,0.02,Wunderground v.1.15,2013-02-18 23:00:00,
2013-02-18 18:10:00,44.9,24.8,30.43,WSW,257,0.0,7.0,45,0.00,,,0.02,Wunderground v.1.15,2013-02-18 23:10:00,
2013-02-18 18:15:00,43.8,25.9,30.43,NW,326,0.0,7.0,49,0.00,,,0.02,Wunderground v.1.15,2013-02-18 23:15:00,
2013-02-18 18:25:00,41.8,26.8,30.43,NW,324,0.0,0.0,55,0.00,,,0.02,Wunderground v.1.15,2013-02-18 23:25:00,
2013-02-18 18:35:00,40.1,27.3,30.43,West,274,0.0,0.0,60,0.00,,,0.02,Wunderground v.1.15,2013-02-18 23:35:00,
2013-02-18 18:40:00,39.3,27.0,30.43,West,274,0.0,0.0,61,0.00,,,0.02,Wunderground v.1.15,2013-02-18 23:40:00,
2013-02-18 18:45:00,38.7,27.6,30.43,West,274,0.0,0.0,64,0.00,,,0.02,Wunderground v.1.15,2013-02-18 23:45:00,
2013-02-18 18:55:00,37.5,27.2,30.43,West,274,0.0,0.0,66,0.00,,,0.02,Wunderground v.1.15,2013-02-18 23:55:00,
2013-02-18 19:05:00,36.6,26.3,30.43,West,271,0.0,3.0,66,0.00,,,0.02,Wunderground v.1.15,2013-02-19 00:05:00,
2013-02-18 19:15:00,36.1,26.6,30.43,West,271,0.0,3.0,68,0.00,,,0.02,Wunderground v.1.15,2013-02-19 00:15:00,
2013-02-18 19:20:00,35.9,27.4,30.43,West,271,0.0,0.0,71,0.00,,,0.02,Wunderground v.1.15,2013-02-19 00:20:00,
2013-02-18 19:30:00,35.5,27.0,30.43,West,270,0.0,0.0,71,0.00,,,0.02,Wunderground v.1.15,2013-02-19 00:30:00,
2013-02-18 19:35:00,35.2,26.4,30.43,West,269,0.0,0.0,70,0.00,,,0.02,Wunderground v.1.15,2013-02-19 00:35:00,
2013-02-18 19:45:00,34.7,26.9,30.43,West,269,0.0,0.0,73,0.00,,,0.02,Wunderground v.1.15,2013-02-19 00:45:00,
2013-02-18 19:55:00,34.3,26.5,30.42,West,270,0.0,0.0,73,0.00,,,0.02,Wunderground v.1.15,2013-02-19 00:55:00,
2013-02-18 20:05:00,33.9,26.8,30.42,West,269,0.0,0.0,75,0.00,,,0.02,Wunderground v.1.15,2013-02-19 01:05:00,
2013-02-18 20:10:00,33.9,25.8,30.42,West,270,0.0,0.0,72,0.00,,,0.02,Wunderground v.1.15,2013-02-19 01:10:00,
2013-02-18 20:20:00,34.0,26.3,30.42,West,267,0.0,0.0,73,0.00,,,0.02,Wunderground v.1.15,2013-02-19 01:20:00,
2013-02-18 20:30:00,33.9,26.2,30.42,West,266,0.0,0.0,73,0.00,,,0.02,Wunderground v.1.15,2013-02-19 01:30:00,
2013-02-18 20:40:00,33.9,26.2,30.42,West,267,0.0,0.0,73,0.00,,,0.02,Wunderground v.1.15,2013-02-19 01:40:00,
2013-02-18 20:45:00,33.8,26.4,30.42,West,267,0.0,0.0,74,0.00,,,0.02,Wunderground v.1.15,2013-02-19 01:45:00,
2013-02-18 20:55:00,33.6,26.5,30.42,NW,308,0.0,0.0,75,0.00,,,0.02,Wunderground v.1.15,2013-02-19 01:55:00,
2013-02-18 21:00:00,33.2,26.1,30.42,NW,307,0.0,0.0,75,0.00,,,0.02,Wunderground v.1.15,2013-02-19 02:00:00,
2013-02-18 21:10:00,33.7,25.3,30.42,WNW,292,0.0,0.0,71,0.00,,,0.02,Wunderground v.1.15,2013-02-19 02:10:00,
2013-02-18 21:20:00,37.2,25.8,30.42,NNE,27,1.0,1.0,63,0.00,,,0.02,Wunderground v.1.15,2013-02-19 02:20:00,
2013-02-18 21:35:00,37.7,26.6,30.41,WSW,256,0.0,1.0,64,0.00,,,0.02,Wunderground v.1.15,2013-02-19 02:35:00,
2013-02-18 21:45:00,36.4,26.8,30.41,WSW,256,0.0,0.0,68,0.00,,,0.02,Wunderground v.1.15,2013-02-19 02:45:00,
2013-02-18 21:55:00,35.2,26.7,30.41,WSW,249,0.0,0.0,71,0.00,,,0.02,Wunderground v.1.15,2013-02-19 02:55:00,
2013-02-18 22:05:00,34.6,25.8,30.41,West,276,0.0,1.0,70,0.00,,,0.02,Wunderground v.1.15,2013-02-19 03:05:00,
2013-02-18 22:15:00,33.5,26.1,30.41,West,276,0.0,1.0,74,0.00,,,0.02,Wunderground v.1.15,2013-02-19 03:15:00,
2013-02-18 22:20:00,33.1,26.4,30.41,West,276,0.0,0.0,76,0.00,,,0.02,Wunderground v.1.15,2013-02-19 03:20:00,
2013-02-18 22:30:00,32.2,25.8,30.41,West,276,0.0,0.0,77,0.00,,,0.02,Wunderground v.1.15,2013-02-19 03:30:00,
2013-02-18 22:40:00,31.4,25.9,30.41,West,276,0.0,0.0,80,0.00,,,0.02,Wunderground v.1.15,2013-02-19 03:40:00,
2013-02-18 22:50:00,31.0,25.6,30.41,West,276,0.0,0.0,80,0.00,,,0.02,Wunderground v.1.15,2013-02-19 03:50:00,
2013-02-18 22:55:00,30.8,25.4,30.41,West,276,0.0,0.0,80,0.00,,,0.02,Wunderground v.1.15,2013-02-19 03:55:00,
2013-02-18 23:05:00,30.4,25.6,30.41,West,276,0.0,5.0,82,0.00,,,0.02,Wunderground v.1.15,2013-02-19 04:05:00,
2013-02-18 23:10:00,30.1,25.0,30.41,West,276,0.0,5.0,81,0.00,,,0.02,Wunderground v.1.15,2013-02-19 04:10:00,
2013-02-18 23:20:00,29.8,25.3,30.41,West,276,0.0,0.0,83,0.00,,,0.02,Wunderground v.1.15,2013-02-19 04:20:00,
2013-02-18 23:30:00,29.5,25.0,30.40,West,276,0.0,0.0,83,0.00,,,0.02,Wunderground v.1.15,2013-02-19 04:30:00,
2013-02-18 23:40:00,29.3,25.1,30.39,West,276,0.0,0.0,84,0.00,,,0.02,Wunderground v.1.15,2013-02-19 04:40:00,
2013-02-18 23:45:00,29.3,25.1,30.39,West,276,0.0,0.0,84,0.00,,,0.02,Wunderground v.1.15,2013-02-19 04:45:00,
2013-02-18 23:50:00,29.2,25.3,30.38,West,276,0.0,0.0,85,0.00,,,0.02,Wunderground v.1.15,2013-02-19 04:50:00,